サンフアン の空港の天気 - METARとTAF

ルイス・ムニョス・マリン国際空港 ( TJSJ / SJU ) - プエルトリコ サンフアン
飛行場実況気象(Metar)
観測時間04/21 10:56 AST (04/21 14:56 UTC)
風向・風速東北東 10m/s 瞬間風速11m/s
視程10km以上
天気現象
少しの雲 雲底高度 820m
全天の4割程度の雲 雲底高度 1130m
全天の4割程度の雲 雲底高度 2440m
気温28.3℃
湿度67%
気圧1018.5hPa
METARTJSJ 211456Z 07019G22KT 10SM FEW027 SCT037 SCT080 28/22 A3008 RMK AO2 SLP185 VCSH NE T02830217 51002
過去の天気等 Google飛行場航空写真 Wunderground天気予報

過去48時間のMETAR

飛行場予報(TAF)
発表時間: 4/21 07:20 AST (4/21 11:20 UTC)
予報対象時間: 21日8時 AST ~ 22日8時 AST
風向・風速東 4m/s
視程10km以上
天気現象周辺でしゅう雨
全天の4割程度の雲 雲底高度 760m
21日9時 AST から
風向・風速東 8m/s 瞬間風速 13m/s
視程10km以上
天気現象周辺でしゅう雨
全天の4割程度の雲 雲底高度 910m
21日18時 AST から
風向・風速東 4m/s
視程10km以上
全天の4割程度の雲 雲底高度 910m
TJSJ 211120Z 2112/2212 08007KT P6SM VCSH SCT025
FM211300 08015G25KT P6SM VCSH SCT030
FM212200 10008KT P6SM SCT030